X  Cerrar Datos meteorológicos de aviación METAR     ETAR Ramstein Air Base
Temperatura
26°C Temperatura
12°C Punto de rocío
42% Humedad



Viento
5 KM/H
3 MPH
1 M/S
3 NUDO



220°
SO
Condiciones actuales

Nubes mayormente dispersas Nubes mayormente dispersas
Presión 1012.87 (hPa) - 29.91 (inHg)
Visibilidad 6 (milla) - 9.7 (km)
Aeropuerto
Código de aeropuerto ETAR

localidad: Ramstein Air Base
Distancia: 25 (km)

Metar:
ETAR 251455Z 22003KT 9999 SCT200 26/12 A2991 RMK AO2A SLP130 T02620119 57013

Hora: 25-07-2024 16:55 CEST